sensor_id;sensor_type;location;lat;lon;timestamp;pressure;altitude;pressure_sealevel;temperature;humidity
8294;BME280;4185;41.506;24.938;2023-01-15T00:00:48;93836.59;;;5.30;99.55
8294;BME280;4185;41.506;24.938;2023-01-15T00:03:15;93840.03;;;5.30;99.94
8294;BME280;4185;41.506;24.938;2023-01-15T00:05:41;93842.56;;;5.25;99.99
8294;BME280;4185;41.506;24.938;2023-01-15T00:08:08;93845.81;;;5.20;99.67
8294;BME280;4185;41.506;24.938;2023-01-15T00:10:37;93842.09;;;5.17;100.00
8294;BME280;4185;41.506;24.938;2023-01-15T00:13:03;93846.41;;;5.15;100.00
8294;BME280;4185;41.506;24.938;2023-01-15T00:15:30;93853.88;;;5.11;100.00
8294;BME280;4185;41.506;24.938;2023-01-15T00:17:57;93853.88;;;5.11;100.00
8294;BME280;4185;41.506;24.938;2023-01-15T00:20:24;93846.66;;;5.08;100.00
8294;BME280;4185;41.506;24.938;2023-01-15T00:22:51;93850.25;;;5.05;100.00
8294;BME280;4185;41.506;24.938;2023-01-15T00:25:18;93847.69;;;5.01;100.00
8294;BME280;4185;41.506;24.938;2023-01-15T00:28:04;93845.44;;;4.99;100.00
8294;BME280;4185;41.506;24.938;2023-01-15T00:30:31;93853.50;;;4.99;100.00
8294;BME280;4185;41.506;24.938;2023-01-15T00:32:58;93855.03;;;5.01;100.00
8294;BME280;4185;41.506;24.938;2023-01-15T00:35:25;93844.56;;;5.03;100.00
8294;BME280;4185;41.506;24.938;2023-01-15T00:37:52;93848.75;;;5.04;100.00
8294;BME280;4185;41.506;24.938;2023-01-15T00:40:20;93839.47;;;5.05;100.00
8294;BME280;4185;41.506;24.938;2023-01-15T00:42:47;93847.25;;;5.03;99.92
8294;BME280;4185;41.506;24.938;2023-01-15T00:45:15;93847.25;;;5.03;100.00
8294;BME280;4185;41.506;24.938;2023-01-15T00:47:43;93846.19;;;5.00;100.00
8294;BME280;4185;41.506;24.938;2023-01-15T00:50:14;93843.63;;;4.96;99.41
8294;BME280;4185;41.506;24.938;2023-01-15T00:52:41;93841.38;;;4.95;99.20
8294;BME280;4185;41.506;24.938;2023-01-15T00:55:08;93831.91;;;4.90;99.70
8294;BME280;4185;41.506;24.938;2023-01-15T00:57:35;93834.47;;;4.94;99.44
8294;BME280;4185;41.506;24.938;2023-01-15T01:00:03;93827.44;;;4.87;100.00
8294;BME280;4185;41.506;24.938;2023-01-15T01:02:31;93834.97;;;5.02;100.00
8294;BME280;4185;41.506;24.938;2023-01-15T01:04:58;93829.59;;;5.02;99.53
8294;BME280;4185;41.506;24.938;2023-01-15T01:07:25;93826.47;;;5.03;99.94
8294;BME280;4185;41.506;24.938;2023-01-15T01:09:52;93833.06;;;5.02;99.78
8294;BME280;4185;41.506;24.938;2023-01-15T01:12:19;93829.59;;;5.02;99.12
8294;BME280;4185;41.506;24.938;2023-01-15T01:14:48;93824.34;;;4.98;99.68
8294;BME280;4185;41.506;24.938;2023-01-15T01:17:14;93823.00;;;4.93;99.20
8294;BME280;4185;41.506;24.938;2023-01-15T01:19:43;93823.44;;;4.92;99.51
8294;BME280;4185;41.506;24.938;2023-01-15T01:22:10;93825.38;;;4.91;100.00
8294;BME280;4185;41.506;24.938;2023-01-15T01:24:36;93832.88;;;4.96;100.00
8294;BME280;4185;41.506;24.938;2023-01-15T01:27:03;93832.41;;;4.98;99.40
8294;BME280;4185;41.506;24.938;2023-01-15T01:29:30;93835.75;;;5.02;98.87
8294;BME280;4185;41.506;24.938;2023-01-15T01:31:57;93829.47;;;5.05;98.87
8294;BME280;4185;41.506;24.938;2023-01-15T01:34:24;93829.59;;;5.02;98.48
8294;BME280;4185;41.506;24.938;2023-01-15T01:36:52;93820.59;;;4.95;98.37
8294;BME280;4185;41.506;24.938;2023-01-15T01:39:20;93828.38;;;4.93;99.28
8294;BME280;4185;41.506;24.938;2023-01-15T01:41:47;93826.53;;;4.90;99.00
8294;BME280;4185;41.506;24.938;2023-01-15T01:47:20;93838.63;;;4.86;98.50
8294;BME280;4185;41.506;24.938;2023-01-15T01:49:48;93834.91;;;4.83;99.49
8294;BME280;4185;41.506;24.938;2023-01-15T01:52:20;93830.13;;;4.87;99.67
8294;BME280;4185;41.506;24.938;2023-01-15T01:54:49;93821.00;;;4.85;99.27
8294;BME280;4185;41.506;24.938;2023-01-15T01:57:18;93826.25;;;4.88;99.42
8294;BME280;4185;41.506;24.938;2023-01-15T01:59:47;93823.00;;;4.93;98.84
8294;BME280;4185;41.506;24.938;2023-01-15T02:02:15;93827.47;;;4.96;98.10
8294;BME280;4185;41.506;24.938;2023-01-15T02:04:45;93829.28;;;4.99;97.95
8294;BME280;4185;41.506;24.938;2023-01-15T02:07:12;93826.91;;;5.02;98.38
8294;BME280;4185;41.506;24.938;2023-01-15T02:09:40;93832.59;;;5.04;98.58
8294;BME280;4185;41.506;24.938;2023-01-15T02:12:12;93831.97;;;4.99;98.15
8294;BME280;4185;41.506;24.938;2023-01-15T02:14:48;93840.50;;;4.98;98.30
8294;BME280;4185;41.506;24.938;2023-01-15T02:17:24;93836.47;;;5.03;98.36
8294;BME280;4185;41.506;24.938;2023-01-15T02:20:14;93821.84;;;5.04;98.38
8294;BME280;4185;41.506;24.938;2023-01-15T02:22:51;93826.91;;;5.02;97.05
8294;BME280;4185;41.506;24.938;2023-01-15T02:25:26;93831.97;;;4.99;96.99
8294;BME280;4185;41.506;24.938;2023-01-15T02:28:01;93834.97;;;5.02;96.42
8294;BME280;4185;41.506;24.938;2023-01-15T02:30:32;93833.19;;;4.98;97.40
8294;BME280;4185;41.506;24.938;2023-01-15T02:33:05;93834.66;;;4.99;96.98
8294;BME280;4185;41.506;24.938;2023-01-15T02:35:35;93830.34;;;5.02;98.15
8294;BME280;4185;41.506;24.938;2023-01-15T02:38:07;93828.41;;;5.03;97.74
8294;BME280;4185;41.506;24.938;2023-01-15T02:40:37;93829.16;;;5.03;97.53
8294;BME280;4185;41.506;24.938;2023-01-15T02:43:07;93834.97;;;5.02;98.08
8294;BME280;4185;41.506;24.938;2023-01-15T02:45:37;93835.59;;;5.06;97.71
8294;BME280;4185;41.506;24.938;2023-01-15T02:48:10;93835.91;;;5.08;98.72
8294;BME280;4185;41.506;24.938;2023-01-15T02:50:42;93839.59;;;5.01;98.72
8294;BME280;4185;41.506;24.938;2023-01-15T02:53:13;93833.69;;;4.84;100.00
8294;BME280;4185;41.506;24.938;2023-01-15T02:55:43;93825.81;;;4.90;100.00
8294;BME280;4185;41.506;24.938;2023-01-15T02:58:18;93826.28;;;4.97;99.45
8294;BME280;4185;41.506;24.938;2023-01-15T03:00:48;93822.72;;;5.01;99.24
8294;BME280;4185;41.506;24.938;2023-01-15T03:03:21;93821.97;;;5.00;98.02
8294;BME280;4185;41.506;24.938;2023-01-15T03:05:54;93822.72;;;5.01;98.92
8294;BME280;4185;41.506;24.938;2023-01-15T03:08:23;93817.34;;;5.01;98.76
8294;BME280;4185;41.506;24.938;2023-01-15T03:10:59;93819.16;;;5.04;99.78
8294;BME280;4185;41.506;24.938;2023-01-15T03:13:41;93820.50;;;5.08;98.86
8294;BME280;4185;41.506;24.938;2023-01-15T03:16:13;93827.81;;;5.08;98.79
8294;BME280;4185;41.506;24.938;2023-01-15T03:19:06;93827.53;;;5.06;99.04
8294;BME280;4185;41.506;24.938;2023-01-15T03:21:44;93824.13;;;5.14;98.35
8294;BME280;4185;41.506;24.938;2023-01-15T03:24:16;93817.69;;;5.12;97.91
8294;BME280;4185;41.506;24.938;2023-01-15T03:26:44;93831.44;;;5.14;97.37
8294;BME280;4185;41.506;24.938;2023-01-15T03:29:13;93832.59;;;5.04;95.78
8294;BME280;4185;41.506;24.938;2023-01-15T03:31:40;93830.50;;;4.98;96.45
8294;BME280;4185;41.506;24.938;2023-01-15T03:34:09;93829.84;;;4.94;96.65
8294;BME280;4185;41.506;24.938;2023-01-15T03:36:36;93825.50;;;4.88;96.54
8294;BME280;4185;41.506;24.938;2023-01-15T03:39:03;93829.38;;;4.87;97.00
8294;BME280;4185;41.506;24.938;2023-01-15T03:41:39;93825.50;;;4.88;96.17
8294;BME280;4185;41.506;24.938;2023-01-15T03:44:13;93826.84;;;4.92;95.28
8294;BME280;4185;41.506;24.938;2023-01-15T03:46:54;93834.47;;;4.94;95.65
8294;BME280;4185;41.506;24.938;2023-01-15T03:49:36;93824.34;;;4.98;95.99
8294;BME280;4185;41.506;24.938;2023-01-15T03:52:12;93828.66;;;4.95;95.09
8294;BME280;4185;41.506;24.938;2023-01-15T03:54:43;93824.72;;;4.87;94.81
8294;BME280;4185;41.506;24.938;2023-01-15T03:57:20;93830.75;;;4.91;95.52
8294;BME280;4185;41.506;24.938;2023-01-15T03:59:55;93830.44;;;4.89;94.63
8294;BME280;4185;41.506;24.938;2023-01-15T04:02:23;93834.78;;;4.87;95.28
8294;BME280;4185;41.506;24.938;2023-01-15T04:04:51;93845.66;;;4.83;95.35
8294;BME280;4185;41.506;24.938;2023-01-15T04:07:20;93841.00;;;4.84;94.51
8294;BME280;4185;41.506;24.938;2023-01-15T04:09:47;93842.66;;;4.81;94.00
8294;BME280;4185;41.506;24.938;2023-01-15T04:12:14;93838.41;;;4.71;95.29
8294;BME280;4185;41.506;24.938;2023-01-15T04:14:41;93840.22;;;4.74;94.97
8294;BME280;4185;41.506;24.938;2023-01-15T04:17:09;93844.28;;;4.79;95.45
8294;BME280;4185;41.506;24.938;2023-01-15T04:19:36;93845.91;;;4.76;94.34
8294;BME280;4185;41.506;24.938;2023-01-15T04:22:03;93839.00;;;4.75;94.68
8294;BME280;4185;41.506;24.938;2023-01-15T04:24:30;93852.03;;;4.77;94.56
8294;BME280;4185;41.506;24.938;2023-01-15T04:26:57;93845.03;;;4.79;94.14
8294;BME280;4185;41.506;24.938;2023-01-15T04:29:24;93845.28;;;4.72;94.39
8294;BME280;4185;41.506;24.938;2023-01-15T04:31:51;93844.69;;;4.68;94.20
8294;BME280;4185;41.506;24.938;2023-01-15T04:34:23;93859.31;;;4.67;94.01
8294;BME280;4185;41.506;24.938;2023-01-15T04:36:51;93853.16;;;4.67;94.75
8294;BME280;4185;41.506;24.938;2023-01-15T04:39:17;93849.28;;;4.68;94.11
8294;BME280;4185;41.506;24.938;2023-01-15T04:41:45;93861.22;;;4.67;94.50
8294;BME280;4185;41.506;24.938;2023-01-15T04:44:31;93860.50;;;4.66;94.80
8294;BME280;4185;41.506;24.938;2023-01-15T04:46:58;93857.06;;;4.66;94.13
8294;BME280;4185;41.506;24.938;2023-01-15T04:49:26;93860.94;;;4.65;94.64
8294;BME280;4185;41.506;24.938;2023-01-15T04:51:53;93865.25;;;4.62;94.01
8294;BME280;4185;41.506;24.938;2023-01-15T04:54:20;93870.00;;;4.58;94.32
8294;BME280;4185;41.506;24.938;2023-01-15T04:56:49;93869.06;;;4.52;94.24
8294;BME280;4185;41.506;24.938;2023-01-15T04:59:18;93866.81;;;4.51;93.68
8294;BME280;4185;41.506;24.938;2023-01-15T05:01:45;93869.06;;;4.52;93.78
8294;BME280;4185;41.506;24.938;2023-01-15T05:04:12;93865.72;;;4.48;94.22
8294;BME280;4185;41.506;24.938;2023-01-15T05:06:40;93873.94;;;4.45;94.76
8294;BME280;4185;41.506;24.938;2023-01-15T05:09:07;93869.63;;;4.47;94.14
8294;BME280;4185;41.506;24.938;2023-01-15T05:11:35;93879.81;;;4.52;94.53
8294;BME280;4185;41.506;24.938;2023-01-15T05:14:03;93882.50;;;4.52;94.37
8294;BME280;4185;41.506;24.938;2023-01-15T05:16:30;93893.28;;;4.52;93.49
8294;BME280;4185;41.506;24.938;2023-01-15T05:18:59;93890.59;;;4.52;93.61
8294;BME280;4185;41.506;24.938;2023-01-15T05:21:28;93894.47;;;4.51;92.48
8294;BME280;4185;41.506;24.938;2023-01-15T05:23:58;93892.84;;;4.54;92.98
8294;BME280;4185;41.506;24.938;2023-01-15T05:26:26;93898.97;;;4.54;92.74
8294;BME280;4185;41.506;24.938;2023-01-15T05:28:55;93899.09;;;4.51;93.46
8294;BME280;4185;41.506;24.938;2023-01-15T05:31:22;93894.75;;;4.53;92.99
8294;BME280;4185;41.506;24.938;2023-01-15T05:33:51;93895.84;;;4.56;93.75
8294;BME280;4185;41.506;24.938;2023-01-15T05:36:20;93884.97;;;4.59;92.98
8294;BME280;4185;41.506;24.938;2023-01-15T05:38:47;93891.84;;;4.60;92.39
8294;BME280;4185;41.506;24.938;2023-01-15T05:41:17;93893.47;;;4.58;92.52
8294;BME280;4185;41.506;24.938;2023-01-15T05:44:03;93890.34;;;4.59;91.87
8294;BME280;4185;41.506;24.938;2023-01-15T05:46:30;93890.47;;;4.56;91.38
8294;BME280;4185;41.506;24.938;2023-01-15T05:48:59;93896.19;;;4.45;91.64
8294;BME280;4185;41.506;24.938;2023-01-15T05:51:26;93899.31;;;4.44;92.82
8294;BME280;4185;41.506;24.938;2023-01-15T05:53:54;93898.00;;;4.48;93.15
8294;BME280;4185;41.506;24.938;2023-01-15T05:56:22;93905.84;;;4.55;92.82
8294;BME280;4185;41.506;24.938;2023-01-15T05:58:49;93902.84;;;4.53;91.81
8294;BME280;4185;41.506;24.938;2023-01-15T06:01:16;93900.78;;;4.57;92.23
8294;BME280;4185;41.506;24.938;2023-01-15T06:03:43;93904.97;;;4.58;93.58
8294;BME280;4185;41.506;24.938;2023-01-15T06:06:12;93911.22;;;4.55;92.75
8294;BME280;4185;41.506;24.938;2023-01-15T06:08:40;93911.78;;;4.50;93.20
8294;BME280;4185;41.506;24.938;2023-01-15T06:11:07;93905.97;;;4.52;93.88
8294;BME280;4185;41.506;24.938;2023-01-15T06:13:37;93910.78;;;4.57;93.17
8294;BME280;4185;41.506;24.938;2023-01-15T06:16:05;93908.41;;;4.59;93.02
8294;BME280;4185;41.506;24.938;2023-01-15T06:18:32;93902.59;;;4.60;93.51
8294;BME280;4185;41.506;24.938;2023-01-15T06:21:02;93893.03;;;4.59;93.28
8294;BME280;4185;41.506;24.938;2023-01-15T06:23:29;93897.53;;;4.62;91.83
8294;BME280;4185;41.506;24.938;2023-01-15T06:25:59;93901.09;;;4.59;92.14
8294;BME280;4185;41.506;24.938;2023-01-15T06:28:26;93896.88;;;4.58;92.37
8294;BME280;4185;41.506;24.938;2023-01-15T06:30:55;93894.84;;;4.62;92.43
8294;BME280;4185;41.506;24.938;2023-01-15T06:33:22;93893.97;;;4.65;92.52
8294;BME280;4185;41.506;24.938;2023-01-15T06:35:49;93897.53;;;4.62;92.12
8294;BME280;4185;41.506;24.938;2023-01-15T06:38:16;93900.97;;;4.63;91.84
8294;BME280;4185;41.506;24.938;2023-01-15T06:40:43;93904.72;;;4.65;92.13
8294;BME280;4185;41.506;24.938;2023-01-15T06:43:10;93899.34;;;4.65;92.37
8294;BME280;4185;41.506;24.938;2023-01-15T06:45:57;93906.00;;;4.73;93.00
8294;BME280;4185;41.506;24.938;2023-01-15T06:48:41;93902.75;;;4.78;92.54
8294;BME280;4185;41.506;24.938;2023-01-15T06:51:08;93906.34;;;4.84;92.51
8294;BME280;4185;41.506;24.938;2023-01-15T06:53:39;93903.09;;;4.89;92.08
8294;BME280;4185;41.506;24.938;2023-01-15T06:56:06;93909.13;;;4.93;92.69
8294;BME280;4185;41.506;24.938;2023-01-15T06:58:33;93910.84;;;4.87;92.05
8294;BME280;4185;41.506;24.938;2023-01-15T07:01:06;93909.97;;;4.90;91.79
8294;BME280;4185;41.506;24.938;2023-01-15T07:03:33;93910.47;;;4.98;91.74
8294;BME280;4185;41.506;24.938;2023-01-15T07:06:05;93905.84;;;4.98;91.47
8294;BME280;4185;41.506;24.938;2023-01-15T07:08:32;93906.88;;;4.92;92.32
8294;BME280;4185;41.506;24.938;2023-01-15T07:11:01;93912.38;;;4.88;91.85
8294;BME280;4185;41.506;24.938;2023-01-15T07:13:28;93909.69;;;4.88;91.97
8294;BME280;4185;41.506;24.938;2023-01-15T07:15:57;93910.84;;;4.87;91.12
8294;BME280;4185;41.506;24.938;2023-01-15T07:18:26;93915.50;;;4.87;91.19
8294;BME280;4185;41.506;24.938;2023-01-15T07:20:53;93912.38;;;4.88;91.49
8294;BME280;4185;41.506;24.938;2023-01-15T07:23:21;93909.69;;;4.88;90.86
8294;BME280;4185;41.506;24.938;2023-01-15T07:25:48;93921.50;;;4.91;90.73
8294;BME280;4185;41.506;24.938;2023-01-15T07:28:15;93916.88;;;4.91;90.45
8294;BME280;4185;41.506;24.938;2023-01-15T07:30:42;93923.13;;;4.88;90.10
8294;BME280;4185;41.506;24.938;2023-01-15T07:33:08;93921.94;;;4.89;90.54
8294;BME280;4185;41.506;24.938;2023-01-15T07:35:37;93913.88;;;4.89;89.84
8294;BME280;4185;41.506;24.938;2023-01-15T07:38:04;93923.44;;;4.90;90.34
8294;BME280;4185;41.506;24.938;2023-01-15T07:40:30;93918.38;;;4.92;90.97
8294;BME280;4185;41.506;24.938;2023-01-15T07:42:57;93930.41;;;5.01;90.44
8294;BME280;4185;41.506;24.938;2023-01-15T07:45:42;93930.25;;;5.04;90.69
8294;BME280;4185;41.506;24.938;2023-01-15T07:48:27;93925.31;;;5.03;90.70
8294;BME280;4185;41.506;24.938;2023-01-15T07:51:12;93932.22;;;5.04;92.03
8294;BME280;4185;41.506;24.938;2023-01-15T07:53:39;93934.16;;;5.03;92.51
8294;BME280;4185;41.506;24.938;2023-01-15T07:56:07;93929.66;;;5.00;91.67
8294;BME280;4185;41.506;24.938;2023-01-15T07:58:34;93935.94;;;5.06;91.61
8294;BME280;4185;41.506;24.938;2023-01-15T08:01:01;93938.16;;;4.98;91.74
8294;BME280;4185;41.506;24.938;2023-01-15T08:03:27;93940.09;;;4.98;91.78
8294;BME280;4185;41.506;24.938;2023-01-15T08:05:54;93938.03;;;5.02;92.42
8294;BME280;4185;41.506;24.938;2023-01-15T08:08:22;93938.53;;;5.10;92.38
8294;BME280;4185;41.506;24.938;2023-01-15T08:10:49;93938.41;;;5.13;92.55
8294;BME280;4185;41.506;24.938;2023-01-15T08:13:34;93937.38;;;5.20;91.45
8294;BME280;4185;41.506;24.938;2023-01-15T08:16:18;93942.63;;;5.23;91.73
8294;BME280;4185;41.506;24.938;2023-01-15T08:18:44;93949.97;;;5.23;91.68
8294;BME280;4185;41.506;24.938;2023-01-15T08:21:14;93949.97;;;5.23;92.13
8294;BME280;4185;41.506;24.938;2023-01-15T08:23:43;93954.16;;;5.24;91.92
8294;BME280;4185;41.506;24.938;2023-01-15T08:26:11;93950.28;;;5.25;91.27
8294;BME280;4185;41.506;24.938;2023-01-15T08:28:38;93945.78;;;5.22;90.85
8294;BME280;4185;41.506;24.938;2023-01-15T08:31:06;93939.16;;;5.14;91.02
8294;BME280;4185;41.506;24.938;2023-01-15T08:33:33;93946.66;;;5.19;90.83
8294;BME280;4185;41.506;24.938;2023-01-15T08:36:00;93949.47;;;5.15;91.52
8294;BME280;4185;41.506;24.938;2023-01-15T08:38:27;93948.41;;;5.13;91.20
8294;BME280;4185;41.506;24.938;2023-01-15T08:40:56;93948.00;;;5.14;91.27
8294;BME280;4185;41.506;24.938;2023-01-15T08:43:29;93953.22;;;5.18;91.60
8294;BME280;4185;41.506;24.938;2023-01-15T08:45:56;93954.44;;;5.17;91.17
8294;BME280;4185;41.506;24.938;2023-01-15T08:48:24;93953.22;;;5.18;90.87
8294;BME280;4185;41.506;24.938;2023-01-15T08:50:51;93950.97;;;5.16;91.42
8294;BME280;4185;41.506;24.938;2023-01-15T08:53:18;93952.03;;;5.19;92.02
8294;BME280;4185;41.506;24.938;2023-01-15T08:55:45;93948.16;;;5.20;91.26
8294;BME280;4185;41.506;24.938;2023-01-15T08:58:14;93941.16;;;5.22;90.99
8294;BME280;4185;41.506;24.938;2023-01-15T09:00:42;93943.41;;;5.24;90.03
8294;BME280;4185;41.506;24.938;2023-01-15T09:03:09;93939.50;;;5.25;90.46
8294;BME280;4185;41.506;24.938;2023-01-15T09:05:36;93941.75;;;5.26;90.25
8294;BME280;4185;41.506;24.938;2023-01-15T09:08:04;93928.59;;;5.28;90.43
8294;BME280;4185;41.506;24.938;2023-01-15T09:10:31;93938.94;;;5.30;89.73
8294;BME280;4185;41.506;24.938;2023-01-15T09:12:58;93929.38;;;5.29;90.26
8294;BME280;4185;41.506;24.938;2023-01-15T09:15:27;93928.47;;;5.32;90.87
8294;BME280;4185;41.506;24.938;2023-01-15T09:17:54;93922.81;;;5.39;90.37
8294;BME280;4185;41.506;24.938;2023-01-15T09:20:22;93924.94;;;5.44;90.39
8294;BME280;4185;41.506;24.938;2023-01-15T09:22:50;93910.28;;;5.45;90.33
8294;BME280;4185;41.506;24.938;2023-01-15T09:25:17;93920.47;;;5.50;89.83
8294;BME280;4185;41.506;24.938;2023-01-15T09:27:44;93912.97;;;5.45;89.80
8294;BME280;4185;41.506;24.938;2023-01-15T09:30:15;93913.91;;;5.51;89.10
8294;BME280;4185;41.506;24.938;2023-01-15T09:32:43;93909.13;;;5.55;88.71
8294;BME280;4185;41.506;24.938;2023-01-15T09:35:10;93903.72;;;5.55;88.66
8294;BME280;4185;41.506;24.938;2023-01-15T09:37:37;93899.84;;;5.56;88.37
8294;BME280;4185;41.506;24.938;2023-01-15T09:40:05;93897.63;;;5.54;88.24
8294;BME280;4185;41.506;24.938;2023-01-15T09:42:40;93896.84;;;5.54;88.60
8294;BME280;4185;41.506;24.938;2023-01-15T09:45:21;93893.72;;;5.55;89.07
8294;BME280;4185;41.506;24.938;2023-01-15T09:48:06;93888.50;;;5.61;88.75
8294;BME280;4185;41.506;24.938;2023-01-15T09:50:47;93889.25;;;5.61;88.33
8294;BME280;4185;41.506;24.938;2023-01-15T09:53:27;93894.34;;;5.59;88.39
8294;BME280;4185;41.506;24.938;2023-01-15T09:56:00;93887.28;;;5.62;87.54
8294;BME280;4185;41.506;24.938;2023-01-15T09:58:32;93885.38;;;5.62;87.96
8294;BME280;4185;41.506;24.938;2023-01-15T10:01:00;93887.75;;;5.60;87.52
8294;BME280;4185;41.506;24.938;2023-01-15T10:03:33;93881.19;;;5.61;87.29
8294;BME280;4185;41.506;24.938;2023-01-15T10:06:09;93874.28;;;5.60;87.46
8294;BME280;4185;41.506;24.938;2023-01-15T10:08:42;93875.03;;;5.61;87.51
8294;BME280;4185;41.506;24.938;2023-01-15T10:11:33;93874.13;;;5.64;87.95
8294;BME280;4185;41.506;24.938;2023-01-15T10:14:31;93874.88;;;5.64;87.38
8294;BME280;4185;41.506;24.938;2023-01-15T10:17:05;93861.88;;;5.63;87.32
8294;BME280;4185;41.506;24.938;2023-01-15T10:19:37;93863.34;;;5.64;87.51
8294;BME280;4185;41.506;24.938;2023-01-15T10:22:12;93847.94;;;5.64;87.28
8294;BME280;4185;41.506;24.938;2023-01-15T10:24:48;93846.75;;;5.65;86.71
8294;BME280;4185;41.506;24.938;2023-01-15T10:27:21;93840.75;;;5.70;86.90
8294;BME280;4185;41.506;24.938;2023-01-15T10:29:53;93835.69;;;5.72;86.44
8294;BME280;4185;41.506;24.938;2023-01-15T10:32:32;93833.75;;;5.73;87.14
8294;BME280;4185;41.506;24.938;2023-01-15T10:35:19;93835.84;;;5.78;86.64
8294;BME280;4185;41.506;24.938;2023-01-15T10:37:51;93832.84;;;5.76;87.21
8294;BME280;4185;41.506;24.938;2023-01-15T10:40:36;93820.00;;;5.80;88.58
8294;BME280;4185;41.506;24.938;2023-01-15T10:43:10;93819.13;;;5.83;88.89
8294;BME280;4185;41.506;24.938;2023-01-15T10:45:44;93816.13;;;5.90;88.68
8294;BME280;4185;41.506;24.938;2023-01-15T10:48:20;93809.09;;;5.92;88.50
8294;BME280;4185;41.506;24.938;2023-01-15T10:50:52;93807.00;;;5.96;87.94
8294;BME280;4185;41.506;24.938;2023-01-15T10:53:27;93795.00;;;5.97;86.87
8294;BME280;4185;41.506;24.938;2023-01-15T10:56:00;93788.72;;;6.00;87.33
8294;BME280;4185;41.506;24.938;2023-01-15T10:58:34;93803.56;;;6.05;87.95
8294;BME280;4185;41.506;24.938;2023-01-15T11:01:05;93791.44;;;6.09;86.87
8294;BME280;4185;41.506;24.938;2023-01-15T11:03:36;93791.28;;;6.13;86.36
8294;BME280;4185;41.506;24.938;2023-01-15T11:06:10;93789.91;;;6.17;86.16
8294;BME280;4185;41.506;24.938;2023-01-15T11:08:39;93786.94;;;6.15;85.88
8294;BME280;4185;41.506;24.938;2023-01-15T11:11:17;93788.59;;;6.13;85.45
8294;BME280;4185;41.506;24.938;2023-01-15T11:13:51;93792.19;;;6.10;86.13
8294;BME280;4185;41.506;24.938;2023-01-15T11:16:37;93781.84;;;6.08;85.92
8294;BME280;4185;41.506;24.938;2023-01-15T11:19:27;93780.19;;;6.11;86.22
8294;BME280;4185;41.506;24.938;2023-01-15T11:22:07;93772.84;;;6.11;86.14
8294;BME280;4185;41.506;24.938;2023-01-15T11:24:37;93773.31;;;6.10;84.93
8294;BME280;4185;41.506;24.938;2023-01-15T11:27:05;93765.97;;;6.10;85.40
8294;BME280;4185;41.506;24.938;2023-01-15T11:29:34;93767.75;;;6.13;85.40
8294;BME280;4185;41.506;24.938;2023-01-15T11:32:03;93766.72;;;6.20;85.32
8294;BME280;4185;41.506;24.938;2023-01-15T11:34:30;93753.66;;;6.37;84.97
8294;BME280;4185;41.506;24.938;2023-01-15T11:37:03;93749.13;;;6.61;83.88
8294;BME280;4185;41.506;24.938;2023-01-15T11:39:32;93739.47;;;7.43;81.48
8294;BME280;4185;41.506;24.938;2023-01-15T11:42:00;93741.72;;;8.30;76.87
8294;BME280;4185;41.506;24.938;2023-01-15T11:44:52;93738.19;;;8.38;73.99
8294;BME280;4185;41.506;24.938;2023-01-15T11:47:37;93734.66;;;8.09;75.49
8294;BME280;4185;41.506;24.938;2023-01-15T11:50:21;93725.47;;;7.92;76.47
8294;BME280;4185;41.506;24.938;2023-01-15T11:53:08;93715.78;;;8.38;74.61
8294;BME280;4185;41.506;24.938;2023-01-15T11:55:49;93715.22;;;8.63;72.60
8294;BME280;4185;41.506;24.938;2023-01-15T11:58:17;93714.94;;;8.90;72.23
8294;BME280;4185;41.506;24.938;2023-01-15T12:00:48;93711.50;;;8.75;72.29
8294;BME280;4185;41.506;24.938;2023-01-15T12:03:17;93708.13;;;8.80;71.85
8294;BME280;4185;41.506;24.938;2023-01-15T12:05:53;93701.03;;;8.68;71.88
8294;BME280;4185;41.506;24.938;2023-01-15T12:17:00;93693.22;;;8.55;71.20
8294;BME280;4185;41.506;24.938;2023-01-15T12:19:32;93700.69;;;8.60;71.28
8294;BME280;4185;41.506;24.938;2023-01-15T12:22:20;93694.13;;;8.38;72.00
8294;BME280;4185;41.506;24.938;2023-01-15T12:27:53;93690.41;;;8.79;70.15
8294;BME280;4185;41.506;24.938;2023-01-15T12:30:26;93688.59;;;8.76;70.34
8294;BME280;4185;41.506;24.938;2023-01-15T12:33:00;93687.31;;;8.86;69.90
8294;BME280;4185;41.506;24.938;2023-01-15T12:35:30;93681.72;;;9.64;67.33
8294;BME280;4185;41.506;24.938;2023-01-15T12:38:03;93679.50;;;10.29;65.25
8294;BME280;4185;41.506;24.938;2023-01-15T12:40:40;93685.06;;;10.71;62.86
8294;BME280;4185;41.506;24.938;2023-01-15T12:43:15;93679.78;;;11.24;60.83
8294;BME280;4185;41.506;24.938;2023-01-15T12:46:04;93669.44;;;11.76;58.87
8294;BME280;4185;41.506;24.938;2023-01-15T12:48:38;93665.09;;;12.06;57.29
8294;BME280;4185;41.506;24.938;2023-01-15T12:51:12;93661.16;;;12.07;56.66
8294;BME280;4185;41.506;24.938;2023-01-15T12:53:42;93663.19;;;12.28;56.64
8294;BME280;4185;41.506;24.938;2023-01-15T12:56:18;93670.38;;;12.32;55.83
8294;BME280;4185;41.506;24.938;2023-01-15T12:58:50;93667.41;;;12.24;56.09
8294;BME280;4185;41.506;24.938;2023-01-15T13:01:22;93669.97;;;13.05;53.89
8294;BME280;4185;41.506;24.938;2023-01-15T13:03:59;93671.19;;;13.09;52.27
8294;BME280;4185;41.506;24.938;2023-01-15T13:06:31;93665.91;;;12.28;53.29
8294;BME280;4185;41.506;24.938;2023-01-15T13:09:04;93665.88;;;11.53;54.21
8294;BME280;4185;41.506;24.938;2023-01-15T13:11:34;93657.19;;;10.76;55.51
8294;BME280;4185;41.506;24.938;2023-01-15T13:14:03;93664.38;;;10.22;58.25
8294;BME280;4185;41.506;24.938;2023-01-15T13:16:40;93661.94;;;9.78;58.80
8294;BME280;4185;41.506;24.938;2023-01-15T13:19:28;93670.19;;;9.49;60.09
8294;BME280;4185;41.506;24.938;2023-01-15T13:22:00;93667.75;;;9.31;60.19
8294;BME280;4185;41.506;24.938;2023-01-15T13:27:37;93656.03;;;9.40;59.96
8294;BME280;4185;41.506;24.938;2023-01-15T13:30:33;93654.69;;;9.15;60.48
8294;BME280;4185;41.506;24.938;2023-01-15T13:33:15;93659.69;;;9.02;61.11
8294;BME280;4185;41.506;24.938;2023-01-15T13:35:47;93663.47;;;8.90;61.50
8294;BME280;4185;41.506;24.938;2023-01-15T13:38:19;93660.84;;;8.81;61.96
8294;BME280;4185;41.506;24.938;2023-01-15T13:40:48;93658.81;;;8.76;62.59
8294;BME280;4185;41.506;24.938;2023-01-15T13:43:31;93657.31;;;8.75;62.04
8294;BME280;4185;41.506;24.938;2023-01-15T13:46:03;93659.38;;;8.80;63.02
8294;BME280;4185;41.506;24.938;2023-01-15T13:48:33;93651.72;;;8.79;62.72
8294;BME280;4185;41.506;24.938;2023-01-15T13:51:03;93657.91;;;8.79;63.07
8294;BME280;4185;41.506;24.938;2023-01-15T13:53:33;93656.22;;;8.67;62.83
8294;BME280;4185;41.506;24.938;2023-01-15T13:56:04;93653.25;;;8.65;64.30
8294;BME280;4185;41.506;24.938;2023-01-15T13:58:36;93652.41;;;8.59;65.41